Wind From: 11-12-2017 06:00 Until: 12-12-2017 06:00 warning for: Wind Level: Orange info button

Power and phone distribution networks may be disrupted for relatively long periods., Roofs and chimneys can be damaged. , Tree branches may break. , Vehicles can be deported. , Traffic may be disrupted, particularly on secondary roads in forest areas. Limit your trips. , Limit your speed in highway driving, especially if you drive a vehicle or hitch sensitive to wind. , Do not go for walks in forests or along the coast., In town, be vigilant against possible falling objects., Do not work on roofs and do not touch any electrical line fallen on the ground., Store or secure sensitive objects to wind or likely to be damaged., Always install power generators outside buildings. 


Meteo18 Weather Cam more information Meteo18 Weather Cam


Thunder radar more information blitzortung!


Rain radar more information rain snow radar


Visit our other weather sites:

Template documentation
and downloads

And another site



Weather Underground History page Text

Daily Summary for May 20, 2017 Units:  English    Metric   Both
« Previous Day
Next Day »
Daily Weekly Monthly Yearly Custom
  High: Low: Average:
Temperature: 63.3 °F 45.7 °F 52.9 °F
Dew Point: 52.3 °F 44.4 °F 47.1 °F
Humidity: 96 % 53 % 83 %
Wind Speed: 12 mph 0 mph 3.4 mph
Wind Gust: 17 mph - -
Wind:- - WSW
Pressure: 30.3 in 30.1 in -
Precipitation: 0.03 in    
Historical Graphs
 
 
Tabular Data for May 20, 2017
Time Temperature Dew Point Pressure Wind Wind Speed Wind Gust Humidity Rainfall Rate (Hourly)
00:02 46.6 °F 45.1 °F 30.1 in SSW 3 mph 6 mph 95 % 0 in
00:07 46.6 °F 45.1 °F 30.1 in SW 3 mph 5 mph 95 % 0 in
00:12 46.6 °F 45.1 °F 30.1 in SSW 2 mph 5 mph 95 % 0 in
00:17 46.6 °F 45.1 °F 30.1 in SW 1 mph 5 mph 95 % 0 in
00:22 46.6 °F 45.1 °F 30.1 in SSW 3 mph 5 mph 95 % 0 in
00:27 46.6 °F 45.1 °F 30.1 in SW 3 mph 5 mph 95 % 0 in
00:32 46.6 °F 45.1 °F 30.1 in SSW 3 mph 6 mph 95 % 0 in
00:37 46.6 °F 45.1 °F 30.1 in SW 4 mph 6 mph 95 % 0 in
00:42 46.6 °F 45.1 °F 30.1 in SSW 3 mph 6 mph 95 % 0 in
00:47 46.6 °F 45.1 °F 30.1 in South 2 mph 6 mph 95 % 0 in
00:52 46.8 °F 45.7 °F 30.1 in SSW 5 mph 6 mph 96 % 0 in
00:57 46.8 °F 45.7 °F 30.1 in SSW 4 mph 7 mph 96 % 0 in
01:02 46.8 °F 45.7 °F 30.1 in SSW 3 mph 7 mph 96 % 0 in
01:12 46.8 °F 45.3 °F 30.1 in SW 3 mph 7 mph 95 % 0 in
01:17 46.8 °F 45.3 °F 30.1 in SSW 2 mph 7 mph 95 % 0 in
01:22 46.6 °F 45.1 °F 30.1 in SW 6 mph 7 mph 95 % 0 in
01:32 46.2 °F 44.8 °F 30.1 in SW 3 mph 6 mph 95 % 0 in
01:42 46 °F 44.6 °F 30.1 in SSW 3 mph 6 mph 95 % 0 in
01:47 45.9 °F 44.4 °F 30.1 in South 3 mph 5 mph 95 % 0 in
01:52 45.9 °F 44.8 °F 30.1 in South 2 mph 5 mph 96 % 0 in
01:57 46 °F 45 °F 30.1 in SSW 1 mph 7 mph 96 % 0 in
02:02 45.9 °F 44.4 °F 30.1 in SSW 3 mph 7 mph 95 % 0 in
02:12 45.7 °F 44.4 °F 30.1 in SSW 2 mph 8 mph 95 % 0 in
02:17 45.7 °F 44.6 °F 30.1 in SW 5 mph 8 mph 96 % 0 in
02:22 45.9 °F 44.8 °F 30.1 in SW 3 mph 8 mph 96 % 0 in
02:32 45.9 °F 44.4 °F 30.1 in SSW 5 mph 9 mph 95 % 0 in
02:42 46 °F 44.6 °F 30.1 in SW 5 mph 9 mph 95 % 0.01 in
02:47 46 °F 44.6 °F 30.1 in SW 4 mph 10 mph 95 % 0.01 in
02:52 46 °F 44.6 °F 30.1 in SSW 4 mph 10 mph 95 % 0.01 in
02:57 46 °F 44.6 °F 30.1 in SW 4 mph 9 mph 95 % 0.01 in
03:02 46 °F 44.6 °F 30.1 in SW 6 mph 9 mph 95 % 0.01 in
03:12 46 °F 44.6 °F 30.1 in SSW 4 mph 9 mph 95 % 0.01 in
03:17 46 °F 44.6 °F 30.1 in SW 4 mph 9 mph 95 % 0.01 in
03:22 46.2 °F 44.8 °F 30.1 in SW 2 mph 9 mph 95 % 0.01 in
03:27 46.2 °F 44.8 °F 30.1 in SW 4 mph 9 mph 95 % 0.01 in
03:32 46.2 °F 44.8 °F 30.1 in SW 5 mph 9 mph 95 % 0 in
03:42 46.4 °F 45.3 °F 30.1 in SSW 3 mph 8 mph 96 % 0 in
03:47 46.6 °F 45.5 °F 30.1 in SSW 5 mph 9 mph 96 % 0 in
03:52 46.8 °F 45.7 °F 30.1 in WSW 4 mph 9 mph 96 % 0 in
03:57 46.9 °F 45.9 °F 30.1 in WSW 2 mph 8 mph 96 % 0 in
04:02 47.1 °F 46 °F 30.1 in SSW 3 mph 8 mph 96 % 0 in
04:12 47.3 °F 45.9 °F 30.1 in South 5 mph 8 mph 95 % 0 in
04:17 47.5 °F 46 °F 30.1 in SW 3 mph 10 mph 95 % 0 in
04:22 47.5 °F 46 °F 30.1 in WSW 6 mph 10 mph 95 % 0 in
04:27 47.5 °F 46 °F 30.1 in WSW 7 mph 12 mph 95 % 0 in
04:32 47.5 °F 46 °F 30.1 in SW 6 mph 12 mph 95 % 0 in
04:42 47.5 °F 46 °F 30.1 in SW 2 mph 15 mph 95 % 0 in
04:52 47.5 °F 46 °F 30.1 in SW 5 mph 15 mph 95 % 0 in
04:57 47.5 °F 46 °F 30.1 in WSW 4 mph 10 mph 95 % 0 in
05:02 47.5 °F 46 °F 30.1 in West 2 mph 10 mph 95 % 0 in
05:12 47.5 °F 46 °F 30.1 in West 7 mph 9 mph 95 % 0 in
05:17 47.5 °F 46 °F 30.1 in SW 6 mph 11 mph 95 % 0 in
05:22 47.5 °F 46 °F 30.1 in SW 6 mph 11 mph 95 % 0 in
05:32 47.5 °F 46 °F 30.1 in SSW 8 mph 11 mph 95 % 0 in
05:42 47.5 °F 46 °F 30.1 in West 10 mph 11 mph 95 % 0 in
05:52 47.5 °F 46 °F 30.1 in WSW 3 mph 12 mph 95 % 0 in
05:57 47.5 °F 46 °F 30.1 in WSW 3 mph 12 mph 95 % 0 in
06:02 47.5 °F 46 °F 30.1 in SW 4 mph 12 mph 95 % 0 in
06:07 47.5 °F 46 °F 30.1 in WSW 2 mph 10 mph 95 % 0 in
06:12 47.5 °F 46 °F 30.1 in West 4 mph 10 mph 95 % 0 in
06:17 47.5 °F 46 °F 30.2 in SSW 3 mph 10 mph 95 % 0 in
06:22 47.3 °F 45.9 °F 30.2 in WSW 6 mph 10 mph 95 % 0 in
06:32 47.3 °F 45.9 °F 30.2 in West 12 mph 12 mph 95 % 0 in
06:37 47.1 °F 45.7 °F 30.2 in WSW 3 mph 12 mph 95 % 0 in
06:47 47.1 °F 45.7 °F 30.2 in WSW 3 mph 12 mph 95 % 0 in
06:52 47.1 °F 45.7 °F 30.2 in West 3 mph 12 mph 95 % 0 in
06:57 47.1 °F 45.7 °F 30.2 in WSW 3 mph 11 mph 95 % 0 in
07:02 47.1 °F 45.7 °F 30.2 in WSW 7 mph 11 mph 95 % 0 in
07:12 47.3 °F 45.9 °F 30.2 in SW 2 mph 9 mph 95 % 0 in
07:22 47.5 °F 46 °F 30.2 in WSW 1 mph 11 mph 95 % 0 in
07:32 47.5 °F 46 °F 30.2 in SSW 1 mph 8 mph 95 % 0 in
07:42 47.7 °F 46.2 °F 30.2 in SSE 3 mph 7 mph 95 % 0 in
07:47 47.7 °F 46.2 °F 30.2 in WSW 2 mph 9 mph 95 % 0 in
07:52 47.7 °F 46.2 °F 30.2 in West 5 mph 9 mph 95 % 0 in
08:02 48 °F 46.6 °F 30.2 in SW 4 mph 9 mph 95 % 0 in
08:12 48.2 °F 46.6 °F 30.2 in West 4 mph 11 mph 94 % 0 in
08:17 48.4 °F 46.8 °F 30.2 in WSW 4 mph 9 mph 94 % 0 in
08:22 48 °F 46 °F 30.2 in West 3 mph 9 mph 93 % 0 in
08:32 48 °F 46.4 °F 30.2 in WNW 2 mph 11 mph 94 % 0 in
08:42 48.2 °F 46.6 °F 30.2 in SSW 4 mph 11 mph 94 % 0 in
08:47 48.4 °F 46.8 °F 30.2 in WSW 2 mph 9 mph 94 % 0 in
08:52 48.6 °F 46.9 °F 30.2 in SW 6 mph 9 mph 94 % 0 in
08:57 48.6 °F 46.6 °F 30.2 in SW 3 mph 9 mph 93 % 0 in
09:02 48.4 °F 46.2 °F 30.2 in West 6 mph 9 mph 92 % 0 in
09:12 48.9 °F 46.8 °F 30.2 in West 4 mph 14 mph 92 % 0 in
09:17 49.1 °F 46.6 °F 30.2 in West 6 mph 14 mph 91 % 0 in
09:22 49.6 °F 47.5 °F 30.2 in West 5 mph 14 mph 92 % 0 in
09:32 50.2 °F 47.3 °F 30.2 in SW 5 mph 12 mph 90 % 0 in
09:37 50.2 °F 47.3 °F 30.2 in WSW 5 mph 13 mph 90 % 0 in
09:42 50.4 °F 47.5 °F 30.2 in SSW 5 mph 13 mph 90 % 0 in
09:52 51.1 °F 48 °F 30.2 in WSW 5 mph 12 mph 89 % 0 in
09:57 50.9 °F 47.5 °F 30.2 in SW 6 mph 12 mph 88 % 0 in
10:02 51.1 °F 47.7 °F 30.2 in West 8 mph 12 mph 88 % 0 in
10:12 52 °F 48.2 °F 30.2 in WSW 3 mph 10 mph 87 % 0 in
10:17 52.2 °F 48 °F 30.2 in SW 1 mph 12 mph 86 % 0 in
10:22 52.3 °F 48 °F 30.2 in WSW 5 mph 12 mph 85 % 0 in
10:32 53.2 °F 48.2 °F 30.2 in SW 7 mph 10 mph 83 % 0 in
10:37 54 °F 49.8 °F 30.2 in West 4 mph 11 mph 86 % 0 in
10:42 53.8 °F 48 °F 30.2 in West 9 mph 11 mph 81 % 0 in
10:47 54 °F 47.7 °F 30.2 in West 5 mph 12 mph 79 % 0 in
10:52 54.3 °F 48.2 °F 30.2 in SW 4 mph 12 mph 80 % 0 in
11:02 54.9 °F 47.1 °F 30.2 in West 7 mph 12 mph 75 % 0 in
11:12 55 °F 48 °F 30.2 in WSW 8 mph 13 mph 77 % 0 in
11:17 55.6 °F 48.9 °F 30.2 in SW 3 mph 14 mph 78 % 0 in
11:22 55.2 °F 46 °F 30.2 in West 5 mph 14 mph 71 % 0 in
11:32 56.3 °F 48.2 °F 30.2 in West 10 mph 14 mph 74 % 0 in
11:42 54.9 °F 47.5 °F 30.2 in WSW 5 mph 10 mph 76 % 0 in
11:47 54.5 °F 47.5 °F 30.2 in West 1 mph 12 mph 77 % 0 in
11:52 54.7 °F 47.7 °F 30.2 in SSW 4 mph 12 mph 77 % 0 in
11:57 54.7 °F 47.3 °F 30.2 in WSW 6 mph 8 mph 76 % 0 in
12:02 54.9 °F 48.2 °F 30.2 in WSW 7 mph 8 mph 78 % 0 in
12:12 56.5 °F 47.5 °F 30.2 in WSW 6 mph 9 mph 72 % 0 in
12:17 57 °F 47.3 °F 30.2 in SW 4 mph 9 mph 70 % 0 in
12:22 57 °F 46.2 °F 30.2 in WSW 3 mph 12 mph 67 % 0 in
12:27 57.6 °F 48.2 °F 30.2 in SW 4 mph 12 mph 71 % 0 in
12:32 57 °F 47.7 °F 30.2 in WSW 4 mph 14 mph 71 % 0 in
12:37 56.5 °F 47.5 °F 30.2 in West 8 mph 14 mph 72 % 0 in
12:42 55.9 °F 47.1 °F 30.2 in West 4 mph 10 mph 72 % 0 in
12:52 55.4 °F 47.7 °F 30.2 in West 5 mph 10 mph 75 % 0 in
13:02 55.6 °F 47.8 °F 30.2 in West 2 mph 8 mph 75 % 0 in
13:12 57 °F 48 °F 30.2 in WNW 5 mph 7 mph 72 % 0 in
13:17 57.4 °F 47.3 °F 30.2 in WNW 4 mph 11 mph 69 % 0 in
13:22 57.4 °F 47.3 °F 30.2 in West 5 mph 11 mph 69 % 0 in
13:32 57.4 °F 47.3 °F 30.2 in WSW 5 mph 11 mph 69 % 0 in
13:42 58.6 °F 47.3 °F 30.2 in SSW 3 mph 9 mph 66 % 0 in
13:52 58.8 °F 46.6 °F 30.3 in West 5 mph 10 mph 64 % 0 in
13:57 58.8 °F 47.5 °F 30.3 in WSW 7 mph 10 mph 66 % 0 in
14:02 59 °F 46.4 °F 30.2 in West 3 mph 10 mph 63 % 0 in
14:12 60.1 °F 46.6 °F 30.2 in West 4 mph 9 mph 61 % 0 in
14:17 60.3 °F 46.8 °F 30.2 in West 6 mph 11 mph 61 % 0 in
14:22 60.1 °F 46.9 °F 30.2 in SW 1 mph 11 mph 62 % 0 in
14:32 60.6 °F 46.2 °F 30.2 in WSW 1 mph 11 mph 59 % 0 in
14:42 60.6 °F 45.3 °F 30.2 in SW 3 mph 7 mph 57 % 0 in
14:52 61.2 °F 46.2 °F 30.2 in WSW 2 mph 10 mph 58 % 0 in
15:02 60.6 °F 45.7 °F 30.3 in WSW 5 mph 10 mph 58 % 0 in
15:12 60.8 °F 45.9 °F 30.3 in West 4 mph 8 mph 58 % 0 in
15:17 60.6 °F 46.6 °F 30.3 in SW 6 mph 13 mph 60 % 0 in
15:22 61.3 °F 47.3 °F 30.3 in WSW 4 mph 13 mph 60 % 0 in
15:32 62.2 °F 46.8 °F 30.3 in WSW 4 mph 13 mph 57 % 0 in
15:37 62.2 °F 46.4 °F 30.2 in WSW 7 mph 11 mph 56 % 0 in
15:42 62.1 °F 47.1 °F 30.2 in SW 6 mph 11 mph 58 % 0 in
15:47 61.9 °F 47.8 °F 30.3 in SSW 2 mph 15 mph 60 % 0 in
15:52 61.9 °F 49.1 °F 30.3 in ESE 3 mph 15 mph 63 % 0 in
15:57 61.7 °F 47.7 °F 30.3 in WSW 8 mph 12 mph 60 % 0 in
16:02 61.9 °F 48.2 °F 30.3 in WSW 3 mph 12 mph 61 % 0 in
16:07 61.9 °F 47.5 °F 30.2 in West 4 mph 10 mph 59 % 0 in
16:12 62.4 °F 50 °F 30.2 in SW 1 mph 10 mph 64 % 0 in
16:17 62.2 °F 47.7 °F 30.3 in SW 5 mph 17 mph 59 % 0 in
16:22 61.9 °F 46.9 °F 30.3 in SSE 2 mph 17 mph 58 % 0 in
16:32 62.1 °F 47.1 °F 30.3 in West 5 mph 10 mph 58 % 0 in
16:37 61.7 °F 47.3 °F 30.3 in SSE 5 mph 9 mph 59 % 0 in
16:42 62.1 °F 48 °F 30.3 in SW 4 mph 9 mph 60 % 0 in
16:47 62.4 °F 47.5 °F 30.3 in SW 4 mph 7 mph 58 % 0 in
16:52 62.8 °F 48.7 °F 30.3 in WSW 3 mph 7 mph 60 % 0 in
16:57 62.6 °F 47.1 °F 30.3 in SW 7 mph 13 mph 57 % 0 in
17:02 61.9 °F 46 °F 30.3 in WNW 5 mph 13 mph 56 % 0 in
17:12 62.2 °F 45 °F 30.3 in WNW 2 mph 10 mph 53 % 0 in
17:17 62.4 °F 46.6 °F 30.3 in SSW 5 mph 14 mph 56 % 0 in
17:22 63 °F 46.9 °F 30.3 in SW 2 mph 14 mph 56 % 0 in
17:32 63.1 °F 46.2 °F 30.3 in West 2 mph 10 mph 54 % 0 in
17:37 63.3 °F 46.9 °F 30.3 in WSW 6 mph 10 mph 55 % 0 in
17:42 63.3 °F 47.3 °F 30.3 in SSW 5 mph 10 mph 56 % 0 in
17:52 63.1 °F 46.8 °F 30.3 in South 6 mph 11 mph 55 % 0 in
18:02 62.8 °F 45.3 °F 30.3 in SW 7 mph 10 mph 53 % 0 in
18:12 63 °F 46.6 °F 30.3 in SSW 4 mph 12 mph 55 % 0 in
18:17 63.1 °F 48.6 °F 30.3 in SSW 6 mph 12 mph 59 % 0 in
18:22 62.8 °F 48.7 °F 30.3 in SW 5 mph 11 mph 60 % 0 in
18:27 62.1 °F 48.9 °F 30.3 in SW 2 mph 11 mph 62 % 0 in
18:32 61.5 °F 49.3 °F 30.3 in WSW 3 mph 12 mph 64 % 0 in
18:37 61 °F 49.1 °F 30.3 in WSW 7 mph 12 mph 65 % 0 in
18:42 60.6 °F 49.3 °F 30.3 in SW 1 mph 11 mph 66 % 0 in
18:47 60.4 °F 49.8 °F 30.3 in West 4 mph 10 mph 68 % 0 in
18:52 60.1 °F 49.5 °F 30.3 in WNW 7 mph 10 mph 68 % 0 in
18:57 59.2 °F 50.2 °F 30.3 in WSW 4 mph 14 mph 72 % 0 in
19:02 57.4 °F 49.1 °F 30.3 in WNW 9 mph 14 mph 74 % 0 in
19:12 54.9 °F 49.8 °F 30.3 in WNW 5 mph 14 mph 83 % 0.02 in
19:17 54.3 °F 49.6 °F 30.3 in North 2 mph 12 mph 84 % 0.02 in
19:22 54.1 °F 49.8 °F 30.3 in NNW 2 mph 12 mph 85 % 0.02 in
19:32 54 °F 49.8 °F 30.3 in NNW 2 mph 9 mph 86 % 0.02 in
19:42 54.7 °F 50.5 °F 30.3 in NNW 1 mph 4 mph 86 % 0.02 in
19:47 55.6 °F 51.1 °F 30.3 in NNW 1 mph 4 mph 85 % 0.02 in
19:52 56.3 °F 51.8 °F 30.3 in Calm   4 mph 85 % 0.02 in
20:02 57.6 °F 51.8 °F 30.3 in Calm   3 mph 81 % 0.02 in
20:07 58.5 °F 52.3 °F 30.3 in Calm   2 mph 80 % 0.02 in
20:12 59.2 °F 51.6 °F 30.3 in WNW 1 mph 2 mph 76 % 0.01 in
20:17 59 °F 51.8 °F 30.3 in Calm   2 mph 77 % 0 in
20:22 59.5 °F 52 °F 30.3 in Calm   2 mph 76 % 0 in
20:27 59.5 °F 52.3 °F 30.3 in Calm   2 mph 77 % 0 in
20:32 59.2 °F 51.6 °F 30.3 in Calm   2 mph 76 % 0 in
20:42 59.2 °F 50.9 °F 30.3 in Calm   1 mph 74 % 0 in
20:47 58.8 °F 51.6 °F 30.3 in Calm   1 mph 77 % 0 in
20:52 57.7 °F 50.9 °F 30.3 in Calm   1 mph 78 % 0 in
20:57 56.7 °F 51.3 °F 30.3 in Calm     82 % 0 in
21:02 55.4 °F 50.4 °F 30.3 in Calm     83 % 0 in
21:12 54 °F 50.2 °F 30.3 in Calm   1 mph 87 % 0 in
21:17 53.6 °F 50.4 °F 30.3 in Calm     89 % 0 in
21:22 52.9 °F 49.6 °F 30.3 in Calm     89 % 0 in
21:27 52.5 °F 49.6 °F 30.3 in Calm     90 % 0 in
21:32 52.2 °F 49.6 °F 30.3 in Calm     91 % 0 in
21:37 52 °F 49.5 °F 30.3 in WNW 1 mph   91 % 0 in
21:42 51.6 °F 49.1 °F 30.3 in Calm     91 % 0 in
21:52 51.4 °F 49.3 °F 30.3 in Calm   1 mph 92 % 0 in
21:57 51.3 °F 49.1 °F 30.3 in Calm   1 mph 92 % 0 in
22:02 51.1 °F 49.1 °F 30.3 in Calm   1 mph 93 % 0 in
22:12 51.1 °F 49.1 °F 30.3 in Calm   1 mph 93 % 0 in
22:17 50.9 °F 48.9 °F 30.3 in Calm   1 mph 93 % 0 in
22:22 50.7 °F 48.7 °F 30.3 in WNW 1 mph 1 mph 93 % 0 in
22:32 50.4 °F 48.4 °F 30.3 in Calm   2 mph 93 % 0 in
22:37 50.2 °F 48.2 °F 30.3 in Calm   2 mph 93 % 0 in
22:42 50.2 °F 48.6 °F 30.3 in Calm   2 mph 94 % 0 in
22:52 49.8 °F 48.2 °F 30.3 in Calm   1 mph 94 % 0 in
22:57 49.8 °F 48.4 °F 30.3 in Calm   1 mph 95 % 0 in
23:02 49.8 °F 48.2 °F 30.3 in Calm   1 mph 94 % 0 in
23:12 49.5 °F 47.8 °F 30.3 in Calm     94 % 0 in
23:17 48.9 °F 47.3 °F 30.3 in North 1 mph 1 mph 94 % 0 in
23:22 48.9 °F 47.5 °F 30.3 in Calm   1 mph 95 % 0 in
23:27 48.7 °F 47.3 °F 30.3 in Calm   1 mph 95 % 0 in
23:32 48.7 °F 47.3 °F 30.3 in Calm   1 mph 95 % 0 in
23:37 48.7 °F 47.3 °F 30.3 in Calm   1 mph 95 % 0 in
23:42 48.6 °F 47.1 °F 30.3 in Calm   1 mph 95 % 0 in
23:52 48 °F 46.6 °F 30.3 in Calm     95 % 0 in
Meteo18
Compliments of Weather Underground - 4 mb

Script developed by  Jim McMurry - jmcmurry@mwt.net Adapted for the template by  Wim van der Kuil - Leuven-Template.eu

You find our weather info also at:

European Weather Network

Weather Underground

Equipment we use:

Weather-station
Davis Vue

Weather-program
Meteohub

Weather-server
Raspberry PI 2 B+

Provider
1 and 1

Davis Vue

Meteohub

Raspberry PI 2 B+

1 and 1